Time,TemperatureF,DewpointF,PressureIn,WindDirection,WindDirectionDegrees,WindSpeedMPH,WindSpeedGustMPH,Humidity,HourlyPrecipIn,Conditions,Clouds,dailyrainin,SoftwareType,DateUTC
2013-06-27 01:04:00,69.3,66.2,29.69,SW,225,0.0,-999.0,90,-99.99,,,0.00,Acu-Link.com,2013-06-27 05:04:00,
2013-06-27 02:37:00,66.0,64.5,29.68,NW,315,0.0,-999.0,95,-99.99,,,0.00,Acu-Link.com,2013-06-27 06:37:00,
2013-06-27 02:54:00,65.7,64.8,29.68,ESE,112,0.0,-999.0,97,-99.99,,,0.00,Acu-Link.com,2013-06-27 06:54:00,
2013-06-27 03:09:00,65.3,64.7,29.68,South,180,0.0,-999.0,98,-99.99,,,0.00,Acu-Link.com,2013-06-27 07:09:00,
2013-06-27 03:25:00,64.9,64.3,29.68,North,0,0.0,-999.0,98,-99.99,,,0.00,Acu-Link.com,2013-06-27 07:25:00,
2013-06-27 06:38:00,66.4,66.1,29.67,SE,135,1.7,-999.0,99,-99.99,,,0.00,Acu-Link.com,2013-06-27 10:38:00,
2013-06-27 07:20:00,69.3,67.8,29.66,ESE,112,1.7,-999.0,95,-99.99,,,0.00,Acu-Link.com,2013-06-27 11:20:00,
2013-06-27 07:36:00,70.5,68.4,29.66,South,180,1.7,-999.0,93,-99.99,,,0.00,Acu-Link.com,2013-06-27 11:36:00,
2013-06-27 07:52:00,72.0,68.9,29.66,East,90,1.7,-999.0,90,-99.99,,,0.00,Acu-Link.com,2013-06-27 11:52:00,
2013-06-27 08:09:00,73.6,69.5,29.66,SE,135,2.2,-999.0,87,-99.99,,,0.00,Acu-Link.com,2013-06-27 12:09:00,
2013-06-27 08:24:00,73.9,69.8,29.66,SSE,157,2.2,-999.0,87,-99.99,,,0.00,Acu-Link.com,2013-06-27 12:24:00,
2013-06-27 08:39:00,74.8,70.0,29.66,SSE,157,2.7,-999.0,85,-99.99,,,0.00,Acu-Link.com,2013-06-27 12:39:00,
2013-06-27 08:55:00,75.9,70.7,29.65,East,90,3.2,-999.0,84,-99.99,,,0.00,Acu-Link.com,2013-06-27 12:55:00,
2013-06-27 09:10:00,76.8,70.9,29.65,ESE,112,1.7,-999.0,82,-99.99,,,0.00,Acu-Link.com,2013-06-27 13:10:00,
2013-06-27 09:26:00,77.0,70.7,29.65,East,90,2.7,-999.0,81,-99.99,,,0.00,Acu-Link.com,2013-06-27 13:26:00,
2013-06-27 09:41:00,77.7,71.0,29.65,ESE,112,0.0,-999.0,80,-99.99,,,0.00,Acu-Link.com,2013-06-27 13:41:00,
2013-06-27 09:57:00,77.7,71.0,29.65,ESE,112,1.7,-999.0,80,-99.99,,,0.00,Acu-Link.com,2013-06-27 13:57:00,
2013-06-27 10:13:00,77.9,71.2,29.65,ESE,112,2.7,-999.0,80,-99.99,,,0.00,Acu-Link.com,2013-06-27 14:13:00,
2013-06-27 10:28:00,78.4,71.7,29.65,West,270,0.0,-999.0,80,-99.99,,,0.00,Acu-Link.com,2013-06-27 14:28:00,
2013-06-27 10:44:00,78.4,71.3,29.64,SSE,157,2.7,-999.0,79,-99.99,,,0.00,Acu-Link.com,2013-06-27 14:44:00,
2013-06-27 10:59:00,78.8,71.7,29.64,ESE,112,1.7,-999.0,79,-99.99,,,0.00,Acu-Link.com,2013-06-27 14:59:00,
2013-06-27 11:15:00,79.2,72.1,29.63,South,180,2.2,-999.0,79,-99.99,,,0.00,Acu-Link.com,2013-06-27 15:15:00,
2013-06-27 11:30:00,79.5,72.4,29.63,ESE,112,3.2,-999.0,79,-99.99,,,0.00,Acu-Link.com,2013-06-27 15:30:00,
2013-06-27 11:45:00,80.1,72.6,29.64,ESE,112,2.2,-999.0,78,-99.99,,,0.00,Acu-Link.com,2013-06-27 15:45:00,
2013-06-27 12:00:00,81.0,72.7,29.64,East,90,0.0,-999.0,76,-99.99,,,0.00,Acu-Link.com,2013-06-27 16:00:00,
2013-06-27 12:16:00,81.5,72.8,29.64,NE,45,1.1,-999.0,75,-99.99,,,0.00,Acu-Link.com,2013-06-27 16:16:00,
2013-06-27 12:31:00,81.7,73.4,29.63,NE,45,0.0,-999.0,76,-99.99,,,0.00,Acu-Link.com,2013-06-27 16:31:00,
2013-06-27 12:46:00,81.0,73.1,29.63,NNE,22,2.2,-999.0,77,-99.99,,,0.00,Acu-Link.com,2013-06-27 16:46:00,
2013-06-27 13:01:00,79.9,73.2,29.62,WNW,292,2.7,-999.0,80,-99.99,,,0.00,Acu-Link.com,2013-06-27 17:01:00,
2013-06-27 13:16:00,79.0,73.0,29.62,NE,45,2.7,-999.0,82,-99.99,,,0.00,Acu-Link.com,2013-06-27 17:16:00,
2013-06-27 13:32:00,78.8,73.2,29.61,NE,45,2.7,-999.0,83,-99.99,,,0.00,Acu-Link.com,2013-06-27 17:32:00,
2013-06-27 13:47:00,78.4,73.2,29.61,ESE,112,6.8,-999.0,84,-99.99,,,0.00,Acu-Link.com,2013-06-27 17:47:00,
2013-06-27 14:02:00,70.3,65.6,29.62,SSE,157,4.7,-999.0,85,-99.99,,,0.02,Acu-Link.com,2013-06-27 18:02:00,
2013-06-27 14:17:00,68.4,66.3,29.63,SW,225,2.2,-999.0,93,-99.99,,,0.12,Acu-Link.com,2013-06-27 18:17:00,
2013-06-27 14:32:00,67.3,65.2,29.62,ESE,112,1.7,-999.0,93,-99.99,,,0.20,Acu-Link.com,2013-06-27 18:32:00,
2013-06-27 14:48:00,67.3,65.8,29.60,ENE,67,0.0,-999.0,95,-99.99,,,0.25,Acu-Link.com,2013-06-27 18:48:00,
2013-06-27 15:03:00,67.8,66.9,29.60,NNW,337,1.7,-999.0,97,-99.99,,,0.28,Acu-Link.com,2013-06-27 19:03:00,
2013-06-27 15:18:00,68.2,67.3,29.61,WNW,292,1.1,-999.0,97,-99.99,,,0.29,Acu-Link.com,2013-06-27 19:18:00,
2013-06-27 15:33:00,69.6,68.7,29.60,SSW,202,0.0,-999.0,97,-99.99,,,0.29,Acu-Link.com,2013-06-27 19:33:00,
2013-06-27 15:48:00,70.9,69.7,29.59,West,270,0.0,-999.0,96,-99.99,,,0.29,Acu-Link.com,2013-06-27 19:48:00,
2013-06-27 16:04:00,71.2,70.0,29.59,WNW,292,0.0,-999.0,96,-99.99,,,0.29,Acu-Link.com,2013-06-27 20:04:00,
2013-06-27 16:19:00,71.2,70.0,29.59,NNW,337,2.7,-999.0,96,-99.99,,,0.29,Acu-Link.com,2013-06-27 20:19:00,
2013-06-27 16:34:00,71.2,70.3,29.58,NW,315,2.7,-999.0,97,-99.99,,,0.30,Acu-Link.com,2013-06-27 20:34:00,
2013-06-27 16:50:00,71.2,70.3,29.58,NNE,22,0.0,-999.0,97,-99.99,,,0.30,Acu-Link.com,2013-06-27 20:50:00,
2013-06-27 17:06:00,71.2,70.3,29.58,NNW,337,2.7,-999.0,97,-99.99,,,0.30,Acu-Link.com,2013-06-27 21:06:00,
2013-06-27 17:22:00,70.9,69.7,29.58,NNW,337,1.7,-999.0,96,-99.99,,,0.30,Acu-Link.com,2013-06-27 21:22:00,
2013-06-27 17:52:00,70.3,69.1,29.58,NNW,337,1.7,-999.0,96,-99.99,,,0.30,Acu-Link.com,2013-06-27 21:52:00,
2013-06-27 18:22:00,67.8,66.3,29.58,West,270,2.2,-999.0,95,-99.99,,,0.56,Acu-Link.com,2013-06-27 22:22:00,
2013-06-27 18:37:00,66.7,66.1,29.58,NW,315,2.2,-999.0,98,-99.99,,,0.69,Acu-Link.com,2013-06-27 22:37:00,
2013-06-27 18:53:00,66.9,66.6,29.58,NW,315,2.2,-999.0,99,-99.99,,,0.70,Acu-Link.com,2013-06-27 22:53:00,
2013-06-27 19:08:00,67.1,66.8,29.57,SSE,157,0.0,-999.0,99,-99.99,,,0.70,Acu-Link.com,2013-06-27 23:08:00,
2013-06-27 19:23:00,67.5,67.2,29.57,WNW,292,0.0,-999.0,99,-99.99,,,0.70,Acu-Link.com,2013-06-27 23:23:00,
2013-06-27 19:39:00,67.6,67.3,29.56,WNW,292,1.1,-999.0,99,-99.99,,,0.70,Acu-Link.com,2013-06-27 23:39:00,
2013-06-27 19:54:00,67.8,67.5,29.57,NE,45,0.0,-999.0,99,-99.99,,,0.70,Acu-Link.com,2013-06-27 23:54:00,
2013-06-27 20:25:00,67.6,67.3,29.57,WSW,247,0.0,-999.0,99,-99.99,,,0.70,Acu-Link.com,2013-06-28 00:25:00,
2013-06-27 20:40:00,67.3,67.0,29.57,WSW,247,2.2,-999.0,99,-99.99,,,0.70,Acu-Link.com,2013-06-28 00:40:00,
2013-06-27 20:55:00,66.9,66.6,29.56,WSW,247,2.2,-999.0,99,-99.99,,,0.70,Acu-Link.com,2013-06-28 00:55:00,
2013-06-27 21:26:00,66.7,66.4,29.56,SSW,202,0.0,-999.0,99,-99.99,,,0.70,Acu-Link.com,2013-06-28 01:26:00,
2013-06-27 21:41:00,66.6,66.3,29.57,East,90,0.0,-999.0,99,-99.99,,,0.70,Acu-Link.com,2013-06-28 01:41:00,
2013-06-27 21:57:00,66.7,66.4,29.57,ESE,112,3.2,-999.0,99,-99.99,,,0.70,Acu-Link.com,2013-06-28 01:57:00,
2013-06-27 22:27:00,65.5,65.2,29.57,ESE,112,3.2,-999.0,99,-99.99,,,0.76,Acu-Link.com,2013-06-28 02:27:00,
2013-06-27 22:43:00,65.1,64.8,29.57,SSE,157,2.7,-999.0,99,-99.99,,,0.93,Acu-Link.com,2013-06-28 02:43:00,
2013-06-27 22:58:00,64.9,64.6,29.56,NE,45,0.0,-999.0,99,-99.99,,,1.00,Acu-Link.com,2013-06-28 02:58:00,
2013-06-27 23:13:00,64.8,64.5,29.55,NW,315,0.0,-999.0,99,-99.99,,,1.02,Acu-Link.com,2013-06-28 03:13:00,
2013-06-27 23:29:00,64.8,64.5,29.55,SE,135,0.0,-999.0,99,-99.99,,,1.03,Acu-Link.com,2013-06-28 03:29:00,
2013-06-27 23:44:00,64.8,64.5,29.54,West,270,0.0,-999.0,99,-99.99,,,1.03,Acu-Link.com,2013-06-28 03:44:00,